Time;durP1;ratioP1;P1;durP2;ratioP2;P2;SDS_P1;SDS_P2;PMS_P1;PMS_P2;Temp;Humidity;BMP_temperature;BMP_pressure;BME280_temperature;BME280_humidity;BME280_pressure;Samples;Min_cycle;Max_cycle;Signal;HPM_P1;HPM_P2
2022/11/01 00:00:49;;;;;;;16.98;9.27;;;15.90;99.90;;;;;;5051677;28;20099;-66
2022/11/01 00:03:14;;;;;;;22.65;9.68;;;15.40;99.90;;;;;;5050347;28;20478;-66
2022/11/01 00:05:40;;;;;;;16.35;8.32;;;15.90;99.90;;;;;;5049291;28;20044;-66
2022/11/01 00:08:05;;;;;;;27.80;12.30;;;16.20;99.90;;;;;;5048976;28;20087;-66
2022/11/01 00:10:31;;;;;;;20.27;10.30;;;15.70;99.90;;;;;;5046245;28;20059;-66
2022/11/01 00:12:57;;;;;;;19.42;9.50;;;16.20;99.90;;;;;;5048499;28;20049;-66
2022/11/01 00:15:22;;;;;;;18.83;8.43;;;16.30;99.90;;;;;;5052485;28;20437;-66
2022/11/01 00:17:48;;;;;;;29.15;9.73;;;16.30;99.90;;;;;;5052505;28;20451;-66
2022/11/01 00:20:13;;;;;;;33.38;10.20;;;16.30;99.90;;;;;;5054476;28;20039;-66
2022/11/01 00:22:39;;;;;;;22.98;9.88;;;15.80;99.90;;;;;;5052819;28;20033;-66
2022/11/01 00:25:05;;;;;;;19.33;10.60;;;16.10;99.90;;;;;;5052396;28;20036;-65
2022/11/01 00:27:30;;;;;;;17.05;8.82;;;15.70;99.90;;;;;;5058232;28;20064;-66
2022/11/01 00:29:56;;;;;;;22.58;9.35;;;16.20;99.90;;;;;;5055746;28;20033;-66
2022/11/01 00:32:21;;;;;;;20.13;9.60;;;16.20;99.90;;;;;;5052523;28;20045;-66
2022/11/01 00:34:47;;;;;;;20.15;9.93;;;15.80;99.90;;;;;;5052555;28;20505;-66
2022/11/01 00:37:12;;;;;;;15.27;7.35;;;15.70;99.90;;;;;;5035746;28;20033;-66
2022/11/01 00:39:38;;;;;;;22.88;10.15;;;16.30;99.90;;;;;;5051197;28;20043;-66
2022/11/01 00:42:03;;;;;;;17.75;9.27;;;15.80;99.90;;;;;;5057113;28;20040;-66
2022/11/01 00:44:29;;;;;;;17.60;8.23;;;16.40;99.90;;;;;;5052486;28;20111;-67
2022/11/01 00:46:55;;;;;;;18.88;8.77;;;15.90;99.90;;;;;;5035636;28;20039;-66
2022/11/01 00:49:20;;;;;;;12.95;6.53;;;16.40;99.90;;;;;;5053260;28;20167;-66
2022/11/01 00:51:46;;;;;;;15.15;6.45;;;15.80;99.90;;;;;;5065315;28;20507;-66
2022/11/01 00:54:11;;;;;;;17.30;9.52;;;16.20;99.90;;;;;;5056201;28;20042;-66
2022/11/01 00:56:37;;;;;;;19.85;8.30;;;16.10;99.90;;;;;;5058183;28;20064;-66
2022/11/01 00:59:03;;;;;;;15.95;7.63;;;16.10;99.90;;;;;;5035293;28;20098;-66
2022/11/01 01:01:30;;;;;;;18.85;7.28;;;15.80;99.90;;;;;;5051848;28;20123;-66
2022/11/01 01:03:56;;;;;;;17.83;6.93;;;15.70;99.90;;;;;;5051739;28;20033;-66
2022/11/01 01:06:22;;;;;;;18.40;8.05;;;15.80;99.90;;;;;;5052375;28;20040;-66
2022/11/01 01:08:47;;;;;;;23.98;7.47;;;15.60;99.90;;;;;;5068493;28;20045;-67
2022/11/01 01:11:13;;;;;;;12.43;7.18;;;15.50;99.90;;;;;;5040084;28;20557;-67
2022/11/01 01:13:39;;;;;;;15.77;7.03;;;15.50;99.90;;;;;;5051941;28;20045;-67
2022/11/01 01:16:09;;;;;;;14.45;6.50;;;16.20;99.90;;;;;;5068346;28;20029;-68
2022/11/01 01:18:35;;;;;;;15.15;7.30;;;15.50;99.90;;;;;;5068319;28;20052;-67
2022/11/01 01:21:02;;;;;;;15.98;7.70;;;15.50;99.90;;;;;;5046701;28;20037;-67
2022/11/01 01:23:28;;;;;;;12.20;6.20;;;16.10;99.90;;;;;;5049369;28;20486;-67
2022/11/01 01:25:53;;;;;;;15.48;7.65;;;16.20;99.90;;;;;;5051139;28;20052;-66
2022/11/01 01:28:19;;;;;;;14.43;7.80;;;15.50;99.90;;;;;;5051638;28;20414;-66
2022/11/01 01:30:44;;;;;;;13.23;5.75;;;16.10;99.90;;;;;;5048436;28;20089;-66
2022/11/01 01:33:10;;;;;;;17.45;7.95;;;15.70;99.90;;;;;;5051433;28;20045;-66
2022/11/01 01:35:37;;;;;;;15.25;6.50;;;15.80;99.90;;;;;;5051637;28;20116;-66
2022/11/01 01:38:03;;;;;;;13.10;6.63;;;15.70;99.90;;;;;;5051185;28;20090;-66
2022/11/01 01:40:30;;;;;;;18.77;8.85;;;15.30;99.90;;;;;;5050582;28;20453;-66
2022/11/01 01:42:56;;;;;;;10.50;5.78;;;16.20;99.90;;;;;;5051065;28;20106;-66
2022/11/01 01:45:33;;;;;;;11.15;6.20;;;15.80;99.90;;;;;;5067896;28;20123;-66
2022/11/01 01:48:07;;;;;;;17.65;7.47;;;16.00;99.90;;;;;;5067391;28;20044;-66
2022/11/01 01:50:38;;;;;;;12.80;6.93;;;16.40;99.90;;;;;;5047894;28;20499;-66
2022/11/01 01:53:10;;;;;;;15.20;6.93;;;16.30;99.90;;;;;;5049881;28;20068;-66
2022/11/01 01:55:39;;;;;;;14.48;6.28;;;16.10;99.90;;;;;;5034331;28;20513;-66
2022/11/01 01:58:07;;;;;;;16.15;7.15;;;16.40;99.90;;;;;;5049244;28;20044;-66
2022/11/01 02:00:33;;;;;;;12.60;5.90;;;15.70;99.90;;;;;;5050737;28;20120;-66
2022/11/01 02:02:59;;;;;;;17.65;6.22;;;16.40;99.90;;;;;;5050934;28;20132;-66
2022/11/01 02:05:42;;;;;;;16.90;7.55;;;15.70;99.90;;;;;;5067903;28;20063;-66
2022/11/01 02:08:08;;;;;;;18.33;7.95;;;16.40;99.90;;;;;;5045701;28;20041;-67
2022/11/01 02:10:34;;;;;;;11.60;5.70;;;15.70;99.90;;;;;;5047462;28;20076;-67
2022/11/01 02:13:00;;;;;;;12.88;6.68;;;15.60;99.90;;;;;;5053899;28;20044;-66
2022/11/01 02:15:40;;;;;;;14.30;5.70;;;15.70;99.90;;;;;;5051251;28;20098;-66
2022/11/01 02:18:21;;;;;;;17.23;6.22;;;16.00;99.90;;;;;;5050384;28;20082;-66
2022/11/01 02:21:16;;;;;;;10.70;5.90;;;16.50;99.90;;;;;;5067503;28;20144;-66
2022/11/01 02:24:08;;;;;;;11.35;6.05;;;15.80;99.90;;;;;;5043321;28;20037;-66
2022/11/01 02:26:53;;;;;;;10.98;5.50;;;15.60;99.90;;;;;;5052661;28;20098;-67
2022/11/01 02:29:57;;;;;;;18.63;5.78;;;16.30;99.90;;;;;;5049859;28;20116;-66
2022/11/01 02:32:43;;;;;;;8.95;5.68;;;16.50;99.90;;;;;;5049930;28;20055;-66
2022/11/01 02:35:38;;;;;;;11.80;5.63;;;15.90;99.90;;;;;;5030341;28;20041;-66
2022/11/01 02:38:06;;;;;;;14.32;6.10;;;15.80;99.90;;;;;;5050018;28;20029;-66
2022/11/01 02:40:56;;;;;;;15.30;6.20;;;16.70;99.90;;;;;;5033339;28;20040;-66
2022/11/01 02:43:29;;;;;;;12.80;5.22;;;15.90;99.90;;;;;;5049798;28;20044;-66
2022/11/01 02:45:56;;;;;;;11.13;5.40;;;16.60;99.90;;;;;;5045114;28;20040;-66
2022/11/01 02:48:24;;;;;;;8.55;5.07;;;15.90;99.90;;;;;;5047518;28;20494;-66
2022/11/01 02:50:57;;;;;;;12.35;5.38;;;16.10;99.90;;;;;;5033522;28;20045;-67
2022/11/01 02:53:23;;;;;;;13.80;5.32;;;16.40;99.90;;;;;;5049734;28;20048;-66
2022/11/01 02:55:52;;;;;;;12.82;5.82;;;16.70;99.90;;;;;;5067986;28;20040;-67
2022/11/01 02:58:28;;;;;;;9.57;4.85;;;16.00;99.90;;;;;;5046653;28;20537;-66
2022/11/01 03:00:55;;;;;;;13.40;6.20;;;16.00;99.90;;;;;;5043308;28;20041;-67
2022/11/01 03:03:26;;;;;;;12.68;6.28;;;17.00;99.90;;;;;;5049767;28;20045;-67
2022/11/01 03:06:10;;;;;;;8.77;4.90;;;16.00;99.90;;;;;;5053468;28;20041;-67
2022/11/01 03:08:50;;;;;;;14.35;6.10;;;16.00;99.90;;;;;;5031387;28;20053;-66
2022/11/01 03:11:22;;;;;;;14.45;6.50;;;16.10;99.90;;;;;;5044588;28;20091;-67
2022/11/01 03:14:10;;;;;;;11.57;6.03;;;17.10;99.90;;;;;;5048931;28;20041;-67
2022/11/01 03:16:52;;;;;;;7.22;4.50;;;16.60;99.90;;;;;;5034651;28;20040;-66
2022/11/01 03:19:42;;;;;;;23.75;4.70;;;16.10;99.90;;;;;;5049522;28;20502;-66
2022/11/01 03:22:20;;;;;;;9.63;5.43;;;16.20;99.90;;;;;;5049608;28;20495;-66
2022/11/01 03:28:00;;;;;;;11.00;5.07;;;16.80;99.90;;;;;;5041718;28;20405;-66
2022/11/01 03:30:29;;;;;;;15.27;5.90;;;16.60;99.90;;;;;;5066257;28;20103;-66
2022/11/01 03:32:56;;;;;;;15.18;4.78;;;16.90;99.90;;;;;;5049571;28;20044;-68
2022/11/01 03:35:29;;;;;;;12.80;5.10;;;16.90;99.90;;;;;;5048256;28;20450;-68
2022/11/01 03:37:59;;;;;;;10.07;4.82;;;17.20;99.90;;;;;;5048534;28;20033;-69
2022/11/01 03:40:27;;;;;;;11.77;4.78;;;17.70;99.90;;;;;;5049565;28;20072;-69
2022/11/01 03:42:59;;;;;;;12.32;5.93;;;17.80;99.90;;;;;;5032348;28;20047;-69
2022/11/01 03:45:26;;;;;;;9.43;4.90;;;17.70;99.90;;;;;;5048482;28;20072;-68
2022/11/01 03:47:52;;;;;;;10.57;5.10;;;17.30;99.90;;;;;;5052939;28;20044;-69
2022/11/01 03:50:21;;;;;;;11.70;5.53;;;16.90;99.90;;;;;;5050061;28;20087;-68
2022/11/01 03:52:47;;;;;;;12.02;5.22;;;16.80;99.90;;;;;;5051151;28;20041;-68
2022/11/01 03:55:17;;;;;;;13.65;5.90;;;17.60;99.90;;;;;;5055503;28;20032;-68
2022/11/01 03:57:47;;;;;;;14.48;5.90;;;17.00;99.90;;;;;;5069392;28;20059;-69
2022/11/01 04:00:22;;;;;;;10.68;4.65;;;16.90;99.90;;;;;;5066342;28;20033;-68
2022/11/01 04:02:53;;;;;;;17.50;6.32;;;17.60;99.90;;;;;;5051377;28;20044;-68
2022/11/01 04:05:20;;;;;;;17.20;5.45;;;17.80;99.90;;;;;;5067920;28;20045;-68
2022/11/01 04:07:46;;;;;;;15.35;5.72;;;17.10;99.90;;;;;;5052902;28;20091;-68
2022/11/01 04:10:12;;;;;;;10.00;5.03;;;17.80;99.90;;;;;;5052408;28;20449;-68
2022/11/01 04:12:38;;;;;;;14.02;5.68;;;16.70;99.90;;;;;;5055193;28;20383;-68
2022/11/01 04:20:50;;;;;;;8.57;4.30;;;17.70;99.90;;;;;;5052719;28;20132;-67
2022/11/01 04:23:16;;;;;;;9.85;5.60;;;17.40;99.90;;;;;;5054227;28;20120;-67
2022/11/01 04:25:44;;;;;;;7.78;4.53;;;17.70;99.90;;;;;;5052855;28;20124;-67
2022/11/01 04:28:10;;;;;;;10.73;4.85;;;16.70;99.90;;;;;;5052520;28;20557;-68
2022/11/01 04:30:35;;;;;;;9.85;3.85;;;16.60;99.90;;;;;;5069247;28;20135;-68
2022/11/01 04:33:01;;;;;;;9.95;4.55;;;16.60;99.90;;;;;;5048950;28;20041;-68
2022/11/01 04:35:26;;;;;;;6.68;3.88;;;17.20;99.90;;;;;;5046378;28;20072;-67
2022/11/01 04:37:56;;;;;;;8.82;3.67;;;17.00;99.90;;;;;;5032748;28;20037;-67
2022/11/01 04:40:21;;;;;;;12.23;4.15;;;16.60;99.90;;;;;;5046624;28;20041;-67
2022/11/01 04:42:47;;;;;;;7.25;3.63;;;17.50;99.90;;;;;;5053036;28;20062;-68
2022/11/01 04:45:12;;;;;;;5.13;2.75;;;17.50;99.90;;;;;;5052502;28;20167;-67
2022/11/01 04:47:38;;;;;;;6.32;2.80;;;16.50;99.90;;;;;;5052246;28;20033;-67
2022/11/01 04:50:04;;;;;;;6.85;2.67;;;16.60;99.90;;;;;;5053091;28;20037;-67
2022/11/01 04:52:30;;;;;;;4.07;2.10;;;17.00;99.90;;;;;;5048468;28;20510;-67
2022/11/01 04:54:56;;;;;;;2.10;1.77;;;17.10;99.90;;;;;;5049917;28;20041;-67
2022/11/01 04:57:21;;;;;;;4.35;1.88;;;16.40;99.90;;;;;;5068090;28;20059;-68
2022/11/01 04:59:52;;;;;;;5.32;1.88;;;16.40;99.90;;;;;;5051671;28;20116;-67
2022/11/01 05:02:18;;;;;;;2.70;1.70;;;16.60;99.90;;;;;;5052220;28;20707;-68
2022/11/01 05:04:44;;;;;;;9.07;2.10;;;16.60;99.90;;;;;;5050772;28;20041;-67
2022/11/01 05:07:10;;;;;;;7.00;1.70;;;16.60;99.90;;;;;;5051308;28;20378;-67
2022/11/01 05:09:35;;;;;;;8.25;2.00;;;16.00;99.90;;;;;;5064904;28;20453;-67
2022/11/01 05:12:01;;;;;;;6.93;1.83;;;16.40;99.90;;;;;;5048825;28;20102;-66
2022/11/01 05:14:27;;;;;;;4.68;1.77;;;16.40;99.90;;;;;;5048938;28;20113;-66
2022/11/01 05:16:57;;;;;;;8.70;2.58;;;16.20;99.90;;;;;;5031947;28;20373;-67
2022/11/01 05:19:22;;;;;;;8.07;1.80;;;16.00;99.90;;;;;;5051119;28;20055;-67
2022/11/01 05:21:48;;;;;;;7.45;1.52;;;15.80;99.90;;;;;;5051738;28;20116;-66
2022/11/01 05:24:14;;;;;;;4.38;1.67;;;15.70;99.90;;;;;;5065998;28;20051;-66
2022/11/01 05:26:39;;;;;;;8.45;2.13;;;16.00;99.90;;;;;;5052530;28;20035;-67
2022/11/01 05:29:05;;;;;;;9.77;2.40;;;15.80;99.90;;;;;;5054387;28;20383;-66
2022/11/01 05:31:31;;;;;;;10.20;2.28;;;16.00;99.90;;;;;;5031660;28;20119;-66
2022/11/01 05:33:56;;;;;;;6.03;1.50;;;15.60;99.90;;;;;;5035593;28;20115;-67
2022/11/01 05:36:22;;;;;;;8.27;2.25;;;15.60;99.90;;;;;;5051349;28;20051;-66
2022/11/01 05:38:47;;;;;;;7.05;1.90;;;15.50;99.90;;;;;;5051477;28;20428;-67
2022/11/01 05:41:13;;;;;;;6.78;1.63;;;15.90;99.90;;;;;;5034687;28;20037;-66
2022/11/01 05:43:39;;;;;;;6.88;1.50;;;15.60;99.90;;;;;;5048888;28;20045;-66
2022/11/01 05:46:05;;;;;;;3.28;1.25;;;15.90;99.90;;;;;;5055091;28;20494;-67
2022/11/01 05:48:31;;;;;;;3.50;1.48;;;15.70;99.90;;;;;;5051230;28;20086;-66
2022/11/01 05:50:57;;;;;;;7.38;1.35;;;15.40;99.90;;;;;;5051420;28;20116;-66
2022/11/01 05:53:22;;;;;;;11.98;2.15;;;15.40;99.90;;;;;;5051364;28;20036;-66
2022/11/01 05:55:48;;;;;;;10.95;1.80;;;15.40;99.90;;;;;;5047983;28;20031;-66
2022/11/01 05:58:14;;;;;;;6.97;2.42;;;15.60;99.90;;;;;;5047943;28;20178;-66
2022/11/01 06:00:39;;;;;;;8.50;1.73;;;15.50;99.90;;;;;;5050845;28;20029;-66
2022/11/01 06:03:05;;;;;;;8.43;2.13;;;15.40;99.90;;;;;;5052626;28;20051;-66
2022/11/01 06:05:31;;;;;;;8.00;2.03;;;15.20;99.90;;;;;;5052188;28;20135;-66
2022/11/01 06:08:00;;;;;;;14.38;2.25;;;15.20;99.90;;;;;;5050616;28;20518;-66
2022/11/01 06:10:25;;;;;;;13.43;2.10;;;15.60;99.90;;;;;;5050168;28;20081;-66
2022/11/01 06:12:51;;;;;;;7.93;1.92;;;15.20;99.90;;;;;;5065290;28;20080;-67
2022/11/01 06:15:17;;;;;;;6.10;2.30;;;15.50;99.90;;;;;;5053668;28;20128;-66
2022/11/01 06:17:42;;;;;;;6.55;1.95;;;15.40;99.90;;;;;;5033806;28;20460;-66
2022/11/01 06:20:08;;;;;;;6.07;1.45;;;15.60;99.90;;;;;;5033987;28;20037;-66
2022/11/01 06:22:37;;;;;;;9.40;2.20;;;15.40;99.90;;;;;;5052525;28;20336;-66
2022/11/01 06:25:04;;;;;;;12.68;2.35;;;15.20;99.90;;;;;;5044348;28;20056;-66
2022/11/01 06:27:30;;;;;;;6.65;2.13;;;15.50;99.90;;;;;;5050540;28;20045;-66
2022/11/01 06:29:56;;;;;;;10.70;2.53;;;15.40;99.90;;;;;;5050336;28;20099;-66
2022/11/01 06:32:21;;;;;;;8.25;2.10;;;15.40;99.90;;;;;;5033941;28;20053;-65
2022/11/01 06:34:47;;;;;;;6.50;1.88;;;15.20;99.90;;;;;;5050228;28;20037;-65
2022/11/01 06:37:12;;;;;;;6.00;2.47;;;15.40;99.90;;;;;;5033495;28;20041;-65
2022/11/01 06:39:38;;;;;;;7.00;2.30;;;15.30;99.90;;;;;;5050067;28;20033;-65
2022/11/01 06:42:04;;;;;;;10.02;1.90;;;15.40;99.90;;;;;;5048044;28;20029;-66
2022/11/01 06:44:29;;;;;;;9.77;2.40;;;15.40;99.90;;;;;;5042683;28;21412;-66
2022/11/01 06:46:55;;;;;;;7.70;2.10;;;15.30;99.90;;;;;;5052014;28;20072;-66
2022/11/01 06:49:21;;;;;;;6.82;2.10;;;15.50;99.90;;;;;;5041016;28;20152;-68
2022/11/01 06:51:46;;;;;;;13.25;2.60;;;15.30;99.90;;;;;;5040197;28;20044;-66
2022/11/01 06:54:12;;;;;;;8.07;2.30;;;15.40;99.90;;;;;;5041981;28;20044;-65
2022/11/01 06:56:38;;;;;;;7.55;2.22;;;15.40;99.90;;;;;;5046233;28;20037;-66
2022/11/01 06:59:03;;;;;;;7.05;2.03;;;15.40;99.90;;;;;;5066118;28;20482;-65
2022/11/01 07:01:29;;;;;;;4.32;1.70;;;15.30;99.90;;;;;;5049863;28;20041;-66
2022/11/01 07:03:55;;;;;;;10.73;2.55;;;15.10;99.90;;;;;;5054852;28;20037;-65
2022/11/01 07:06:23;;;;;;;9.77;2.33;;;15.20;99.90;;;;;;5050891;28;20478;-65
2022/11/01 07:08:48;;;;;;;12.63;2.53;;;15.20;99.90;;;;;;5047365;28;20076;-66
2022/11/01 07:11:14;;;;;;;10.40;2.60;;;15.10;99.90;;;;;;5041829;28;20042;-66
2022/11/01 07:13:39;;;;;;;10.23;2.47;;;15.00;99.90;;;;;;5027956;28;20555;-67
2022/11/01 07:16:05;;;;;;;9.25;2.33;;;15.20;99.90;;;;;;5049508;28;20056;-65
2022/11/01 07:18:31;;;;;;;8.35;2.15;;;15.20;99.90;;;;;;5032393;28;20039;-65
2022/11/01 07:21:01;;;;;;;8.88;2.22;;;15.20;99.90;;;;;;5043276;28;20161;-66
2022/11/01 07:23:28;;;;;;;12.88;2.13;;;15.10;99.90;;;;;;5043399;28;20053;-66
2022/11/01 07:25:54;;;;;;;9.35;2.50;;;15.10;99.90;;;;;;5040791;28;20055;-66
2022/11/01 07:28:19;;;;;;;11.05;2.45;;;15.00;99.90;;;;;;5046350;28;20048;-66
2022/11/01 07:30:49;;;;;;;11.88;3.03;;;15.00;99.90;;;;;;5027087;28;20509;-67
2022/11/01 07:33:15;;;;;;;11.27;2.35;;;15.10;99.90;;;;;;5043645;28;20552;-66
2022/11/01 07:35:41;;;;;;;11.23;2.95;;;15.10;99.90;;;;;;5029904;28;20048;-66
2022/11/01 07:38:08;;;;;;;8.18;2.38;;;15.00;99.90;;;;;;5044283;28;20044;-65
2022/11/01 07:40:35;;;;;;;14.05;2.97;;;15.60;99.90;;;;;;5037288;28;20151;-67
2022/11/01 07:43:01;;;;;;;8.90;2.75;;;15.10;99.90;;;;;;5037061;28;20059;-65
2022/11/01 07:45:30;;;;;;;7.57;2.60;;;15.00;99.90;;;;;;5061226;28;20126;-65
2022/11/01 07:48:09;;;;;;;15.48;4.00;;;14.90;99.90;;;;;;5046551;28;20033;-66
2022/11/01 07:50:35;;;;;;;14.52;3.50;;;15.00;99.90;;;;;;5034019;28;20202;-66
2022/11/01 07:53:06;;;;;;;15.07;4.40;;;14.90;99.90;;;;;;5042905;28;20490;-65
2022/11/01 07:55:32;;;;;;;12.90;3.53;;;14.90;99.90;;;;;;5045744;28;20049;-66
2022/11/01 07:57:58;;;;;;;16.83;4.18;;;14.70;99.90;;;;;;5047232;28;20048;-66
2022/11/01 08:00:24;;;;;;;16.73;3.47;;;14.80;99.90;;;;;;5045963;28;20041;-66
2022/11/01 08:02:49;;;;;;;18.65;4.13;;;14.80;99.90;;;;;;5032265;28;20044;-66
2022/11/01 08:05:15;;;;;;;17.45;3.92;;;14.90;99.90;;;;;;5025547;28;20459;-66
2022/11/01 08:07:41;;;;;;;17.92;3.45;;;15.10;99.90;;;;;;5046219;28;20033;-65
2022/11/01 08:10:08;;;;;;;18.35;3.95;;;15.00;99.90;;;;;;5036374;28;20679;-65
2022/11/01 08:12:34;;;;;;;13.75;3.50;;;15.10;99.90;;;;;;5044221;28;20050;-66
2022/11/01 08:15:01;;;;;;;17.27;4.82;;;15.00;99.90;;;;;;5053351;28;20134;-67
2022/11/01 08:17:33;;;;;;;18.83;5.25;;;15.00;99.90;;;;;;5027074;28;20399;-67
2022/11/01 08:19:58;;;;;;;14.48;4.03;;;15.10;99.90;;;;;;5042446;28;20444;-67
2022/11/01 08:22:24;;;;;;;12.85;3.30;;;15.00;99.90;;;;;;5047746;28;20126;-68
2022/11/01 08:24:49;;;;;;;12.00;3.63;;;14.70;99.90;;;;;;5030131;28;20041;-68
2022/11/01 08:27:15;;;;;;;12.65;3.47;;;14.60;99.90;;;;;;5044113;28;20049;-67
2022/11/01 08:29:40;;;;;;;18.17;4.35;;;14.60;99.90;;;;;;5048142;28;20143;-67
2022/11/01 08:32:06;;;;;;;22.92;3.78;;;14.70;99.90;;;;;;5048286;28;20449;-67
2022/11/01 08:34:31;;;;;;;13.30;3.35;;;14.90;99.90;;;;;;5053331;28;20525;-68
2022/11/01 08:36:57;;;;;;;17.25;3.80;;;15.20;99.90;;;;;;5053485;28;20391;-67
2022/11/01 08:39:24;;;;;;;19.77;3.40;;;15.10;99.90;;;;;;5051669;28;20431;-67
2022/11/01 08:41:50;;;;;;;15.10;3.70;;;15.40;99.90;;;;;;5050924;28;20139;-66
2022/11/01 08:44:17;;;;;;;12.82;2.95;;;15.40;99.90;;;;;;5050132;28;20183;-67
2022/11/01 08:46:42;;;;;;;14.25;3.78;;;15.80;99.90;;;;;;5056853;28;20041;-66
2022/11/01 08:49:09;;;;;;;25.02;4.07;;;15.90;99.90;;;;;;5050440;28;20413;-67
2022/11/01 08:51:35;;;;;;;24.80;4.47;;;15.90;99.90;;;;;;5054362;28;20167;-66
2022/11/01 08:54:01;;;;;;;21.70;4.10;;;16.10;99.90;;;;;;5044907;28;20257;-68
2022/11/01 08:56:28;;;;;;;21.02;3.97;;;16.10;99.90;;;;;;5043299;28;20037;-67
2022/11/01 08:58:54;;;;;;;26.65;5.03;;;16.30;99.90;;;;;;5055481;28;20047;-67
2022/11/01 09:01:22;;;;;;;19.60;3.95;;;16.30;99.90;;;;;;5050933;28;20563;-67
2022/11/01 09:03:48;;;;;;;15.50;3.55;;;16.50;99.90;;;;;;5047568;28;20048;-68
2022/11/01 09:06:14;;;;;;;22.05;4.43;;;16.70;99.90;;;;;;5044135;28;20037;-69
2022/11/01 09:08:40;;;;;;;23.00;4.63;;;16.60;99.90;;;;;;5039541;28;20068;-67
2022/11/01 09:11:06;;;;;;;19.30;4.40;;;16.80;99.90;;;;;;5050524;28;20114;-66
2022/11/01 09:13:32;;;;;;;23.48;4.20;;;16.80;99.90;;;;;;5049334;28;20057;-67
2022/11/01 09:15:58;;;;;;;22.77;4.25;;;16.70;99.90;;;;;;5065937;28;20037;-66
2022/11/01 09:18:23;;;;;;;24.08;5.53;;;16.90;99.90;;;;;;5050190;28;20406;-67
2022/11/01 09:20:53;;;;;;;17.70;3.75;;;17.00;99.90;;;;;;5032599;28;20083;-67
2022/11/01 09:23:19;;;;;;;17.10;3.78;;;17.10;99.90;;;;;;5051446;28;20033;-68
2022/11/01 09:25:44;;;;;;;23.27;3.95;;;17.00;99.90;;;;;;5046319;28;20095;-67
2022/11/01 09:28:10;;;;;;;25.48;4.28;;;17.00;99.90;;;;;;5029846;28;20121;-66
2022/11/01 09:30:35;;;;;;;18.77;4.47;;;17.10;99.90;;;;;;5048587;28;20413;-66
2022/11/01 09:33:03;;;;;;;22.88;4.32;;;17.00;99.90;;;;;;5049995;28;20060;-66
2022/11/01 09:35:29;;;;;;;20.77;4.03;;;16.90;99.90;;;;;;5033821;28;20533;-67
2022/11/01 09:37:59;;;;;;;21.35;4.60;;;16.80;99.90;;;;;;5049321;28;20111;-67
2022/11/01 09:40:34;;;;;;;15.98;4.20;;;16.70;99.90;;;;;;5029647;28;20128;-67
2022/11/01 09:43:02;;;;;;;21.20;3.47;;;16.40;99.90;;;;;;5045986;28;20028;-67
2022/11/01 09:45:31;;;;;;;15.18;3.70;;;16.20;99.90;;;;;;5050929;28;20556;-65
2022/11/01 09:47:58;;;;;;;17.23;3.75;;;16.00;99.90;;;;;;5050425;28;20065;-66
2022/11/01 09:50:32;;;;;;;15.65;3.33;;;16.00;99.90;;;;;;5049910;28;20648;-66
2022/11/01 09:52:59;;;;;;;17.63;3.13;;;16.00;99.90;;;;;;5033451;28;20460;-66
2022/11/01 09:55:49;;;;;;;15.57;3.85;;;15.70;99.90;;;;;;5049835;28;20041;-65
2022/11/01 09:58:41;;;;;;;16.73;3.67;;;15.90;99.90;;;;;;5049491;28;20039;-65
2022/11/01 10:01:39;;;;;;;14.82;2.70;;;15.70;99.90;;;;;;5052138;28;20033;-65
2022/11/01 10:04:35;;;;;;;13.85;3.42;;;15.90;99.90;;;;;;5052104;28;20084;-66
2022/11/01 10:07:24;;;;;;;14.85;4.50;;;15.70;99.90;;;;;;5058119;28;20460;-65
2022/11/01 10:10:02;;;;;;;18.58;3.50;;;16.50;99.90;;;;;;5040423;28;20506;-66
2022/11/01 10:12:40;;;;;;;21.25;4.65;;;15.90;99.90;;;;;;5064745;28;20098;-66
2022/11/01 10:15:26;;;;;;;18.75;3.33;;;15.80;99.90;;;;;;5057752;28;20517;-66
2022/11/01 10:17:53;;;;;;;;;;;15.90;99.90;;;;;;5049132;28;20033;-67
2022/11/01 10:20:26;;;;;;;13.15;3.35;;;16.20;99.90;;;;;;5043663;28;20376;-65
2022/11/01 10:22:52;;;;;;;15.65;3.35;;;16.40;99.90;;;;;;5057718;28;20240;-66
2022/11/01 10:25:30;;;;;;;15.77;3.50;;;16.70;99.90;;;;;;5044746;28;20049;-66
2022/11/01 10:28:07;;;;;;;11.93;3.13;;;16.70;99.90;;;;;;5031628;28;20037;-66
2022/11/01 10:30:45;;;;;;;25.13;4.18;;;16.50;99.90;;;;;;5045488;28;20550;-67
2022/11/01 10:33:14;;;;;;;14.07;3.22;;;16.40;99.90;;;;;;5021160;28;20045;-66
2022/11/01 10:35:44;;;;;;;20.75;3.30;;;16.30;99.90;;;;;;5041180;28;20073;-66
2022/11/01 10:38:34;;;;;;;13.93;3.58;;;16.50;99.90;;;;;;5032405;28;20032;-66
2022/11/01 10:41:24;;;;;;;23.88;3.25;;;16.10;99.90;;;;;;5042889;28;20151;-65
2022/11/01 10:43:59;;;;;;;5.63;1.95;;;16.00;99.90;;;;;;5048576;28;20044;-65
2022/11/01 10:46:47;;;;;;;12.70;3.22;;;16.20;99.90;;;;;;5040418;28;20425;-66
2022/11/01 10:49:24;;;;;;;19.58;3.30;;;16.00;99.90;;;;;;5047109;28;20053;-65
2022/11/01 10:51:53;;;;;;;22.38;3.53;;;16.00;99.90;;;;;;5062048;28;20037;-67
2022/11/01 10:54:24;;;;;;;11.20;3.03;;;16.20;99.90;;;;;;5044323;28;20082;-65
2022/11/01 10:56:53;;;;;;;12.10;2.92;;;16.00;99.90;;;;;;5033022;28;20040;-66
2022/11/01 10:59:42;;;;;;;9.68;3.00;;;16.10;99.90;;;;;;5043413;28;20045;-65
2022/11/01 11:02:26;;;;;;;12.48;3.05;;;15.80;99.90;;;;;;5040163;28;20033;-66
2022/11/01 11:04:52;;;;;;;18.15;3.33;;;15.80;99.90;;;;;;5048490;28;20056;-65
2022/11/01 11:07:18;;;;;;;10.70;2.97;;;16.00;99.90;;;;;;5059762;28;20504;-66
2022/11/01 11:09:46;;;;;;;14.15;2.88;;;15.90;99.90;;;;;;5055032;28;20119;-65
2022/11/01 11:12:18;;;;;;;20.27;3.08;;;15.90;99.90;;;;;;5039388;28;20049;-66
2022/11/01 11:14:47;;;;;;;24.23;3.45;;;15.90;99.90;;;;;;5055132;28;20541;-65
2022/11/01 11:17:41;;;;;;;13.52;2.63;;;16.30;99.90;;;;;;5038332;28;20821;-65
2022/11/01 11:20:09;;;;;;;15.55;4.05;;;16.10;99.90;;;;;;5032145;28;20065;-65
2022/11/01 11:22:40;;;;;;;13.82;2.75;;;16.30;99.90;;;;;;5049596;28;20040;-65
2022/11/01 11:25:15;;;;;;;16.15;3.17;;;16.10;99.90;;;;;;5039959;28;20041;-66
2022/11/01 11:27:46;;;;;;;17.23;2.88;;;16.20;99.90;;;;;;5039945;28;20130;-65
2022/11/01 11:30:24;;;;;;;10.00;2.72;;;16.00;99.90;;;;;;5037190;28;20410;-66
2022/11/01 11:32:50;;;;;;;18.77;3.47;;;16.40;99.90;;;;;;5030368;28;20044;-65
2022/11/01 11:35:18;;;;;;;9.60;2.22;;;16.30;99.90;;;;;;5040020;28;20399;-66
2022/11/01 11:38:03;;;;;;;19.90;3.05;;;16.20;99.90;;;;;;5046158;28;20032;-66
2022/11/01 11:40:38;;;;;;;15.20;2.78;;;16.50;99.90;;;;;;5048548;28;20048;-66
2022/11/01 11:43:30;;;;;;;13.68;2.92;;;16.50;99.90;;;;;;5039696;28;20068;-66
2022/11/01 11:46:08;;;;;;;7.60;2.25;;;16.10;99.90;;;;;;5045098;28;20063;-66
2022/11/01 11:48:45;;;;;;;9.35;2.53;;;16.30;99.90;;;;;;5046496;28;20044;-65
2022/11/01 11:51:11;;;;;;;15.75;3.00;;;16.20;99.90;;;;;;5047535;28;20037;-66
2022/11/01 11:53:37;;;;;;;9.57;2.63;;;16.40;99.90;;;;;;5042588;28;20378;-65
2022/11/01 11:56:08;;;;;;;10.52;2.42;;;16.50;99.90;;;;;;5022591;28;20108;-65
2022/11/01 11:58:41;;;;;;;7.43;2.55;;;16.50;99.90;;;;;;5042635;28;20103;-65
2022/11/01 12:01:11;;;;;;;15.75;2.88;;;16.50;99.90;;;;;;5046890;28;20045;-65
2022/11/01 12:03:51;;;;;;;8.15;2.28;;;16.60;99.90;;;;;;5047957;28;20040;-66
2022/11/01 12:06:23;;;;;;;12.55;2.97;;;16.60;99.90;;;;;;5055670;28;20511;-66
2022/11/01 12:08:52;;;;;;;16.02;3.22;;;16.60;99.90;;;;;;5034354;28;20615;-66
2022/11/01 12:11:18;;;;;;;12.48;2.85;;;16.90;99.90;;;;;;5041477;28;20091;-64
2022/11/01 12:13:58;;;;;;;10.05;2.20;;;17.10;99.90;;;;;;5043939;28;20517;-66
2022/11/01 12:16:23;;;;;;;15.07;3.65;;;16.90;99.90;;;;;;5043964;28;20056;-66
2022/11/01 12:18:53;;;;;;;12.93;2.75;;;16.80;99.90;;;;;;5059706;28;20032;-66
2022/11/01 12:21:24;;;;;;;20.55;3.55;;;16.90;99.90;;;;;;5043435;28;20037;-67
2022/11/01 12:23:57;;;;;;;14.88;3.90;;;16.80;99.90;;;;;;5042757;28;20495;-66
2022/11/01 12:26:24;;;;;;;11.55;2.50;;;16.50;99.90;;;;;;5046630;28;20039;-67
2022/11/01 12:28:58;;;;;;;15.13;2.63;;;16.70;99.90;;;;;;5048710;28;20052;-68
2022/11/01 12:31:25;;;;;;;15.82;2.95;;;16.70;99.90;;;;;;5046970;28;20163;-66
2022/11/01 12:34:14;;;;;;;9.48;2.42;;;16.40;99.90;;;;;;5053301;28;20056;-68
2022/11/01 12:36:47;;;;;;;10.23;2.47;;;16.50;99.90;;;;;;5051284;28;20536;-66
2022/11/01 12:39:42;;;;;;;11.98;3.03;;;16.90;99.90;;;;;;5026835;28;20034;-67
2022/11/01 12:42:13;;;;;;;10.18;2.83;;;16.90;99.90;;;;;;5048254;28;20040;-67
2022/11/01 12:44:44;;;;;;;10.95;2.75;;;17.00;99.90;;;;;;5042130;28;20037;-67
2022/11/01 12:47:28;;;;;;;47.72;2.70;;;17.10;99.90;;;;;;5051692;28;20453;-67
2022/11/01 12:50:04;;;;;;;11.60;2.72;;;16.70;99.90;;;;;;5040239;28;20049;-67
2022/11/01 12:52:44;;;;;;;13.48;2.72;;;16.70;99.90;;;;;;5048534;28;20045;-67
2022/11/01 12:55:23;;;;;;;17.58;3.03;;;16.90;99.90;;;;;;5046880;28;20394;-67
2022/11/01 12:57:48;;;;;;;18.15;2.67;;;17.10;99.90;;;;;;5050316;28;20064;-68
2022/11/01 13:00:16;;;;;;;13.50;2.65;;;17.10;99.90;;;;;;5050978;28;20029;-67
2022/11/01 13:03:03;;;;;;;17.73;2.70;;;16.80;99.90;;;;;;5044396;28;20045;-67